Arispe, Iowa
Current Conditions -  °F | °C
As of 6:55 AM on Wednesday 22 Oct 2014 (Local Time) from KCSQ Reporting Station
Overcast Overcast  
Wind Chill: 43°   Ceiling: 4300
Heat Index: 48°   Visibility: 10mi
Dew Point: 41°   Wind: 14mph
Humidity: 76%   Direction: 130°SE
Pressure: 30.2"   Gusts: NA
Location:  40.95°N, 94.22°W
Report Text: KCSQ 221155Z AUTO 13012KT 10SM OVC043 09/05 A3020 RMK AO2
Loading
Personal Weather Stations






























Interactive Weather Map
Tropical Storm Tracking
New forecast layout! Learn more

10-Day Weather Forecast

Advertisements
Track Severe Weather on mobile